csscompressor.com alexa rank chart, csscompressor.com alexa rank daily changes

csscompressor.com alexa rank chart, csscompressor.com alexa rank daily changes

csscompressor.com
Actual rank:
552 460

RANK HISTORY

Date Rank Diff
2017/09/23 552 460 +92 768
2017/09/22 459 692 +32 277
2017/09/20 427 415 +54 190
2017/09/19 373 225 +70 315
2017/09/18 302 910 +36 266
2017/09/17 266 644 +16 688
2017/09/16 249 956 +18 431
2017/09/15 231 525 +15 585
2017/09/14 215 940 +12 365
2017/09/13 203 575 +10 587
2017/09/12 192 988 +7 066
2017/09/11 185 922 +9 889
2017/09/10 176 033 +5 892
2017/09/09 170 141 +5 729
2017/09/08 164 412 +6 769
2017/09/07 157 643 +6 939
2017/09/06 150 704 +8 194
2017/09/05 142 510 +3 328
2017/09/04 139 182 +4 323
2017/09/03 134 859 +5 649
2017/09/02 129 210 +3 063
2017/09/01 126 147 +2 868
2017/08/31 123 279 +2 791
2017/08/30 120 488 +4 600
2017/08/29 115 888 +3 719
2017/08/28 112 169 +1 774
2017/08/27 110 395 +2 946
2017/08/26 107 449 +2 970
2017/08/25 104 479 -1 514
2017/08/24 105 993 -2 179
2017/08/23 108 172 -1 098
2017/08/22 109 270 +52
2017/08/21 109 218 -32
2017/08/20 109 250 -398
2017/08/19 109 648 -2 724
2017/08/18 112 372 -2 298
2017/08/17 114 670 -187
2017/08/16 114 857 -1 906
2017/08/15 116 763 +235
2017/08/14 116 528 -1 311
2017/08/13 117 839 +151
2017/08/12 117 688 +634
2017/08/11 117 054 -983
2017/08/10 118 037 +1 192
2017/08/09 116 845 +2 569
2017/08/08 114 276 +784
2017/08/07 113 492 +919
2017/08/06 112 573 -884
2017/08/05 113 457 +2 227
2017/08/04 111 230 +550
2017/08/03 110 680 -208
2017/08/02 110 888 +2 220
2017/08/01 108 668 +901
2017/07/31 107 767 +1 234
2017/07/30 106 533 -447
2017/07/29 106 980 +1 558
2017/07/28 105 422 +81
2017/07/27 105 341 +256
2017/07/26 105 085 +55
2017/07/25 105 030

WIDGET FOR YOUR SITE

DOMAINS WITH THE NEAREST RANK

Domain Rank
rht.cn 552 455
str8togay.com 552 456
aiesec.de 552 457
viptv.in.ua 552 458
rockpince.hu 552 459
csscompressor.com 552 460
proword.net 552 461
postlikes.com 552 462
e-sbyt.ru 552 463
2krossovka.ru 552 464
windstormproducts.com 552 465

DOMAINS WITH THE NEAREST RANK BY TLD .com

Domain Rank
marketron.com 552 446
cthires.com 552 447
templatetuning.com 552 453
qgdigitalpublishing.com 552 454
str8togay.com 552 456
csscompressor.com 552 460
postlikes.com 552 462
windstormproducts.com 552 465
konkuri.com 552 467
3333c8.com 552 469
northerntransmissions.com 552 470